Time;durP1;ratioP1;P1;durP2;ratioP2;P2;SDS_P1;SDS_P2;PMS_P1;PMS_P2;Temp;Humidity;BMP_temperature;BMP_pressure;BME280_temperature;BME280_humidity;BME280_pressure;Samples;Min_cycle;Max_cycle;Signal;HPM_P1;HPM_P2
2022/07/03 00:01:56;;;;;;;6.30;4.00;;;;;;;;;;5013941;28;20467;-77
2022/07/03 00:04:23;;;;;;;4.03;3.73;;;;;;;;;;5013581;28;20517;-77
2022/07/03 00:06:51;;;;;;;6.80;3.70;;;;;;;;;;5013943;28;20497;-76
2022/07/03 00:09:19;;;;;;;4.53;4.17;;;;;;;;;;5024912;28;20439;-77
2022/07/03 00:11:46;;;;;;;4.10;3.70;;;;;;;;;;5033897;28;20468;-76
2022/07/03 00:14:15;;;;;;;4.83;3.67;;;;;;;;;;5033642;28;20949;-76
2022/07/03 00:16:42;;;;;;;3.80;3.50;;;;;;;;;;5033952;28;20468;-76
2022/07/03 00:19:09;;;;;;;4.20;3.90;;;;;;;;;;5033450;28;20481;-75
2022/07/03 00:21:37;;;;;;;4.77;3.97;;;;;;;;;;5033734;28;20466;-76
2022/07/03 00:24:05;;;;;;;3.97;3.77;;;;;;;;;;5033298;28;20472;-75
2022/07/03 00:26:34;;;;;;;4.87;4.40;;;;;;;;;;5033601;28;20472;-76
2022/07/03 00:29:02;;;;;;;3.40;3.10;;;;;;;;;;5033274;28;20442;-78
2022/07/03 00:31:31;;;;;;;3.77;3.47;;;;;;;;;;5033376;28;20973;-76
2022/07/03 00:33:59;;;;;;;3.43;3.13;;;;;;;;;;5033082;28;20442;-76
2022/07/03 00:36:28;;;;;;;3.50;3.30;;;;;;;;;;5033400;28;20914;-76
2022/07/03 00:38:55;;;;;;;3.27;2.97;;;;;;;;;;5033095;28;21083;-76
2022/07/03 00:41:26;;;;;;;2.70;2.60;;;;;;;;;;5032727;28;20463;-76
2022/07/03 00:43:53;;;;;;;3.10;2.87;;;;;;;;;;5032778;28;20533;-76
2022/07/03 00:46:22;;;;;;;2.67;2.57;;;;;;;;;;5033104;28;20473;-75
2022/07/03 00:48:52;;;;;;;3.20;2.97;;;;;;;;;;5032984;28;20992;-77
2022/07/03 00:51:22;;;;;;;6.70;3.60;;;;;;;;;;5032698;28;20478;-76
2022/07/03 00:53:50;;;;;;;3.80;3.50;;;;;;;;;;5032804;28;20792;-75
2022/07/03 00:56:18;;;;;;;4.20;3.90;;;;;;;;;;5033012;28;20520;-76
2022/07/03 00:58:45;;;;;;;4.00;3.70;;;;;;;;;;5032439;28;20442;-76
2022/07/03 01:01:12;;;;;;;4.30;4.00;;;;;;;;;;5032774;28;20536;-76
2022/07/03 01:03:41;;;;;;;4.17;3.77;;;;;;;;;;5032218;28;20816;-76
2022/07/03 01:06:12;;;;;;;4.73;3.87;;;;;;;;;;5032586;28;20438;-76
2022/07/03 01:08:44;;;;;;;4.10;3.73;;;;;;;;;;5027238;28;20455;-75
2022/07/03 01:11:15;;;;;;;4.47;3.63;;;;;;;;;;5012448;28;20542;-75
2022/07/03 01:13:48;;;;;;;5.80;4.07;;;;;;;;;;5012448;28;20474;-75
2022/07/03 01:16:19;;;;;;;5.97;4.40;;;;;;;;;;5012636;28;20550;-77
2022/07/03 01:18:47;;;;;;;4.43;4.13;;;;;;;;;;5012871;28;20475;-76
2022/07/03 01:21:17;;;;;;;6.20;5.60;;;;;;;;;;5014988;28;20999;-76
2022/07/03 01:23:54;;;;;;;7.00;6.40;;;;;;;;;;5015270;28;20443;-76
2022/07/03 01:26:24;;;;;;;6.83;6.23;;;;;;;;;;5012314;28;20497;-76
2022/07/03 01:28:51;;;;;;;6.50;6.00;;;;;;;;;;5012220;28;20439;-76
2022/07/03 01:31:20;;;;;;;6.73;6.07;;;;;;;;;;5012360;28;20883;-76
2022/07/03 01:33:48;;;;;;;7.17;6.47;;;;;;;;;;5012003;28;20447;-76
2022/07/03 01:36:16;;;;;;;7.77;7.17;;;;;;;;;;5012182;28;20448;-75
2022/07/03 01:38:43;;;;;;;6.93;6.33;;;;;;;;;;5012161;28;20447;-77
2022/07/03 01:41:12;;;;;;;7.03;6.23;;;;;;;;;;5012027;28;20995;-77
2022/07/03 01:43:43;;;;;;;6.10;5.60;;;;;;;;;;5011882;28;20455;-76
2022/07/03 01:46:12;;;;;;;5.30;4.90;;;;;;;;;;5012203;28;20507;-75
2022/07/03 01:48:42;;;;;;;7.20;6.17;;;;;;;;;;5012868;28;20447;-76
2022/07/03 01:51:10;;;;;;;6.10;5.60;;;;;;;;;;5032353;28;20528;-76
2022/07/03 01:53:37;;;;;;;5.90;5.43;;;;;;;;;;5031346;28;20477;-76
2022/07/03 01:56:05;;;;;;;4.97;4.50;;;;;;;;;;5031470;28;20439;-77
2022/07/03 01:58:32;;;;;;;5.43;4.70;;;;;;;;;;5031707;28;20446;-76
2022/07/03 02:01:04;;;;;;;5.30;4.90;;;;;;;;;;5029825;28;20479;-76
2022/07/03 02:03:31;;;;;;;5.43;4.97;;;;;;;;;;5030362;28;20481;-76
2022/07/03 02:06:03;;;;;;;5.20;4.80;;;;;;;;;;5026935;28;20442;-76
2022/07/03 02:08:35;;;;;;;5.00;4.60;;;;;;;;;;5028235;28;20504;-76
2022/07/03 02:11:09;;;;;;;5.20;4.30;;;;;;;;;;5031928;28;20502;-76
2022/07/03 02:13:39;;;;;;;4.60;4.30;;;;;;;;;;5031055;28;20934;-76
2022/07/03 02:16:09;;;;;;;4.97;4.50;;;;;;;;;;5031444;28;20442;-77
2022/07/03 02:18:37;;;;;;;5.73;4.50;;;;;;;;;;5031373;28;20492;-77
2022/07/03 02:21:06;;;;;;;4.00;3.70;;;;;;;;;;5031098;28;20488;-75
2022/07/03 02:23:34;;;;;;;4.83;4.43;;;;;;;;;;5031029;28;20727;-75
2022/07/03 02:26:04;;;;;;;4.50;4.10;;;;;;;;;;5031464;28;20546;-76
2022/07/03 02:28:34;;;;;;;4.60;4.30;;;;;;;;;;5031087;28;20533;-75
2022/07/03 02:31:03;;;;;;;4.40;4.10;;;;;;;;;;5031198;28;20934;-76
2022/07/03 02:33:32;;;;;;;5.27;4.70;;;;;;;;;;5030982;28;20448;-75
2022/07/03 02:36:01;;;;;;;6.93;4.70;;;;;;;;;;5030917;28;20454;-75
2022/07/03 02:38:29;;;;;;;5.03;4.70;;;;;;;;;;5030766;28;20512;-75
2022/07/03 02:40:58;;;;;;;5.07;4.57;;;;;;;;;;5030616;28;21029;-75
2022/07/03 02:43:30;;;;;;;4.80;4.47;;;;;;;;;;5030809;28;20545;-75
2022/07/03 02:46:48;;;;;;;5.83;5.03;;;;;;;;;;5030633;28;20450;-76
2022/07/03 02:48:52;;;;;;;5.27;4.87;;;;;;;;;;5030312;28;20442;-76
2022/07/03 02:51:21;;;;;;;4.20;3.90;;;;;;;;;;5030237;28;20805;-76
2022/07/03 02:53:53;;;;;;;5.10;4.50;;;;;;;;;;5030194;28;20494;-75
2022/07/03 02:56:24;;;;;;;4.67;4.37;;;;;;;;;;5030422;28;20447;-76
2022/07/03 02:59:00;;;;;;;4.77;4.37;;;;;;;;;;5030060;28;20443;-76
2022/07/03 03:01:31;;;;;;;5.10;4.47;;;;;;;;;;5030195;28;20485;-75
2022/07/03 03:04:08;;;;;;;4.33;4.03;;;;;;;;;;5030697;28;20450;-76
2022/07/03 03:06:37;;;;;;;4.00;3.70;;;;;;;;;;5030442;28;20529;-75
2022/07/03 03:09:05;;;;;;;4.37;4.07;;;;;;;;;;5029980;28;20442;-76
2022/07/03 03:11:35;;;;;;;4.43;4.03;;;;;;;;;;5030225;28;20454;-75
2022/07/03 03:14:05;;;;;;;4.70;4.20;;;;;;;;;;5029978;28;20883;-75
2022/07/03 03:16:32;;;;;;;4.40;4.10;;;;;;;;;;5030659;28;20516;-76
2022/07/03 03:19:00;;;;;;;5.33;4.40;;;;;;;;;;5031271;28;20863;-75
2022/07/03 03:21:29;;;;;;;4.37;3.97;;;;;;;;;;5031133;28;21153;-75
2022/07/03 03:23:56;;;;;;;4.07;3.77;;;;;;;;;;5031388;28;20510;-75
2022/07/03 03:26:24;;;;;;;4.20;3.90;;;;;;;;;;5031511;28;20450;-75
2022/07/03 03:28:52;;;;;;;4.10;3.80;;;;;;;;;;5035067;28;20450;-76
2022/07/03 03:31:19;;;;;;;4.03;3.73;;;;;;;;;;5036963;28;20467;-75
2022/07/03 03:33:48;;;;;;;3.97;3.67;;;;;;;;;;5034339;28;20453;-76
2022/07/03 03:36:16;;;;;;;4.10;3.70;;;;;;;;;;5033742;28;20446;-75
2022/07/03 03:38:45;;;;;;;4.70;3.87;;;;;;;;;;5031326;28;20446;-76
2022/07/03 03:41:12;;;;;;;3.77;3.57;;;;;;;;;;5029578;28;20709;-75
2022/07/03 03:43:39;;;;;;;3.97;3.63;;;;;;;;;;5029858;28;20461;-76
2022/07/03 03:46:07;;;;;;;4.13;3.90;;;;;;;;;;5029898;28;20450;-76
2022/07/03 03:48:34;;;;;;;4.30;4.00;;;;;;;;;;5029612;28;20945;-75
2022/07/03 03:51:02;;;;;;;4.20;3.93;;;;;;;;;;5029667;28;20469;-75
2022/07/03 03:53:29;;;;;;;4.37;4.03;;;;;;;;;;5029733;28;20450;-76
2022/07/03 03:56:01;;;;;;;3.87;3.57;;;;;;;;;;5030200;28;20863;-76
2022/07/03 03:58:29;;;;;;;4.20;3.90;;;;;;;;;;5029646;28;20474;-76
2022/07/03 04:00:56;;;;;;;5.77;3.60;;;;;;;;;;5029423;28;20560;-75
2022/07/03 04:03:23;;;;;;;4.50;4.07;;;;;;;;;;5029495;28;20438;-75
2022/07/03 04:05:50;;;;;;;3.70;3.50;;;;;;;;;;5030011;28;20446;-76
2022/07/03 04:08:17;;;;;;;4.33;4.03;;;;;;;;;;5026799;28;20442;-76
2022/07/03 04:10:45;;;;;;;4.70;4.30;;;;;;;;;;5010800;28;21017;-76
2022/07/03 04:13:13;;;;;;;4.60;4.30;;;;;;;;;;5013292;28;20442;-75
2022/07/03 04:15:40;;;;;;;7.57;4.60;;;;;;;;;;5013437;28;20450;-76
2022/07/03 04:18:07;;;;;;;5.33;4.97;;;;;;;;;;5013425;28;20439;-76
2022/07/03 04:20:35;;;;;;;4.63;4.33;;;;;;;;;;5013529;28;20893;-75
2022/07/03 04:23:02;;;;;;;5.00;4.60;;;;;;;;;;5013319;28;20533;-75
2022/07/03 04:25:30;;;;;;;4.37;4.07;;;;;;;;;;5013939;28;20596;-75
2022/07/03 04:27:57;;;;;;;4.67;4.37;;;;;;;;;;5013555;28;20447;-75
2022/07/03 04:30:25;;;;;;;4.37;4.10;;;;;;;;;;5013818;28;20806;-76
2022/07/03 04:32:53;;;;;;;4.27;3.97;;;;;;;;;;5013257;28;20467;-75
2022/07/03 04:35:20;;;;;;;5.13;4.57;;;;;;;;;;5013623;28;20451;-76
2022/07/03 04:37:47;;;;;;;5.17;4.70;;;;;;;;;;5014902;28;20451;-75
2022/07/03 04:40:15;;;;;;;5.13;4.10;;;;;;;;;;5018464;28;20478;-76
2022/07/03 04:42:42;;;;;;;3.87;3.67;;;;;;;;;;5018513;28;20905;-75
2022/07/03 04:45:09;;;;;;;4.20;3.90;;;;;;;;;;5018573;28;20826;-74
2022/07/03 04:47:37;;;;;;;4.10;3.80;;;;;;;;;;5018944;28;20439;-76
2022/07/03 04:50:05;;;;;;;4.63;4.23;;;;;;;;;;5017062;28;20444;-76
2022/07/03 04:52:32;;;;;;;4.07;3.70;;;;;;;;;;5013378;28;20537;-75
2022/07/03 04:54:59;;;;;;;3.63;3.33;;;;;;;;;;5013103;28;20451;-75
2022/07/03 04:57:26;;;;;;;6.90;3.93;;;;;;;;;;5013023;28;20446;-77
2022/07/03 04:59:53;;;;;;;4.50;4.20;;;;;;;;;;5028729;28;20450;-76
2022/07/03 05:02:20;;;;;;;4.30;4.00;;;;;;;;;;5032343;28;20458;-76
2022/07/03 05:04:48;;;;;;;4.40;4.10;;;;;;;;;;5032571;28;20453;-75
2022/07/03 05:07:15;;;;;;;4.50;4.20;;;;;;;;;;5024425;28;20442;-75
2022/07/03 05:09:42;;;;;;;6.57;4.30;;;;;;;;;;5032824;28;20446;-75
2022/07/03 05:12:09;;;;;;;4.70;4.27;;;;;;;;;;5032632;28;20466;-74
2022/07/03 05:14:36;;;;;;;3.93;3.63;;;;;;;;;;5032394;28;20598;-75
2022/07/03 05:17:03;;;;;;;3.73;3.43;;;;;;;;;;5032268;28;20465;-76
2022/07/03 05:19:30;;;;;;;4.47;3.60;;;;;;;;;;5032469;28;20500;-76
2022/07/03 05:21:59;;;;;;;3.40;3.17;;;;;;;;;;5031269;28;21064;-76
2022/07/03 05:24:26;;;;;;;3.57;3.37;;;;;;;;;;5031809;28;20459;-75
2022/07/03 05:26:53;;;;;;;3.40;3.20;;;;;;;;;;5032336;28;20508;-74
2022/07/03 05:29:20;;;;;;;3.87;3.57;;;;;;;;;;5031941;28;20459;-75
2022/07/03 05:31:47;;;;;;;4.37;3.53;;;;;;;;;;5031990;28;20815;-74
2022/07/03 05:34:14;;;;;;;3.90;3.57;;;;;;;;;;5031787;28;21011;-75
2022/07/03 05:36:41;;;;;;;3.50;3.23;;;;;;;;;;5032126;28;20439;-75
2022/07/03 05:41:54;;;;;;;3.47;3.23;;;;;;;;;;5031624;28;20489;-74
2022/07/03 05:44:21;;;;;;;3.87;3.57;;;;;;;;;;5031333;28;20970;-75
2022/07/03 05:46:48;;;;;;;3.30;3.10;;;;;;;;;;5032140;28;20442;-75
2022/07/03 05:49:15;;;;;;;3.60;3.40;;;;;;;;;;5031850;28;20945;-75
2022/07/03 05:51:42;;;;;;;3.60;3.40;;;;;;;;;;5031542;28;21049;-75
2022/07/03 05:54:11;;;;;;;3.63;3.10;;;;;;;;;;5031169;28;20446;-74
2022/07/03 05:56:38;;;;;;;4.83;3.70;;;;;;;;;;5031532;28;20520;-75
2022/07/03 05:59:05;;;;;;;3.80;3.50;;;;;;;;;;5032178;28;20445;-76
2022/07/03 06:01:32;;;;;;;3.70;3.10;;;;;;;;;;5035923;28;20494;-74
2022/07/03 06:03:59;;;;;;;4.50;3.37;;;;;;;;;;5040113;28;20438;-74
2022/07/03 06:06:26;;;;;;;4.10;3.70;;;;;;;;;;5032588;28;20952;-75
2022/07/03 06:08:53;;;;;;;4.20;2.70;;;;;;;;;;5028911;28;20472;-75
2022/07/03 06:11:21;;;;;;;3.47;3.20;;;;;;;;;;5043138;28;20485;-74
2022/07/03 06:13:49;;;;;;;7.00;3.40;;;;;;;;;;5054894;28;20427;-73
2022/07/03 06:16:16;;;;;;;3.13;2.70;;;;;;;;;;5039377;28;20439;-74
2022/07/03 06:18:43;;;;;;;3.50;3.30;;;;;;;;;;5031241;28;20538;-74
2022/07/03 06:21:10;;;;;;;2.60;2.43;;;;;;;;;;5030701;28;21017;-75
2022/07/03 06:23:37;;;;;;;3.97;2.90;;;;;;;;;;5030328;28;20508;-75
2022/07/03 06:26:04;;;;;;;3.00;2.80;;;;;;;;;;5031126;28;20616;-75
2022/07/03 06:28:32;;;;;;;3.13;2.93;;;;;;;;;;5031133;28;20447;-74
2022/07/03 06:30:59;;;;;;;2.90;2.70;;;;;;;;;;5030661;28;20930;-75
2022/07/03 06:33:27;;;;;;;2.80;2.60;;;;;;;;;;5030338;28;20532;-74
2022/07/03 06:35:54;;;;;;;3.20;2.90;;;;;;;;;;5030472;28;20497;-75
2022/07/03 06:38:21;;;;;;;3.07;2.87;;;;;;;;;;5030593;28;20529;-75
2022/07/03 06:40:48;;;;;;;2.90;2.70;;;;;;;;;;5030846;28;20474;-74
2022/07/03 06:43:15;;;;;;;3.10;2.90;;;;;;;;;;5030382;28;20454;-75
2022/07/03 06:45:43;;;;;;;2.87;2.67;;;;;;;;;;5030845;28;20534;-74
2022/07/03 06:48:10;;;;;;;3.23;3.03;;;;;;;;;;5030514;28;20442;-75
2022/07/03 06:50:37;;;;;;;2.80;2.60;;;;;;;;;;5030361;28;20520;-75
2022/07/03 06:53:04;;;;;;;3.30;3.00;;;;;;;;;;5030440;28;20518;-74
2022/07/03 06:55:31;;;;;;;2.93;2.73;;;;;;;;;;5030266;28;20477;-74
2022/07/03 06:57:58;;;;;;;3.63;2.87;;;;;;;;;;5030177;28;20500;-75
2022/07/03 07:00:25;;;;;;;12.20;11.20;;;;;;;;;;5030355;28;20872;-75
2022/07/03 07:02:53;;;;;;;3.00;2.80;;;;;;;;;;5030199;28;20512;-74
2022/07/03 07:05:21;;;;;;;3.57;3.33;;;;;;;;;;5030664;28;20552;-74
2022/07/03 07:07:48;;;;;;;2.97;2.87;;;;;;;;;;5030593;28;20447;-74
2022/07/03 07:10:15;;;;;;;3.10;2.90;;;;;;;;;;5030374;28;20457;-75
2022/07/03 07:12:42;;;;;;;3.00;2.80;;;;;;;;;;5030541;28;20458;-75
2022/07/03 07:15:09;;;;;;;4.70;3.03;;;;;;;;;;5030748;28;20923;-75
2022/07/03 07:17:36;;;;;;;3.10;2.90;;;;;;;;;;5030945;28;20457;-74
2022/07/03 07:20:05;;;;;;;2.67;2.57;;;;;;;;;;5030781;28;20439;-75
2022/07/03 07:22:32;;;;;;;2.03;1.93;;;;;;;;;;5052590;28;20505;-74
2022/07/03 07:24:59;;;;;;;2.10;1.77;;;;;;;;;;5047145;28;20450;-75
2022/07/03 07:27:26;;;;;;;2.07;1.97;;;;;;;;;;5043278;28;20469;-75
2022/07/03 07:29:53;;;;;;;1.50;1.37;;;;;;;;;;5034765;28;20946;-74
2022/07/03 07:32:20;;;;;;;1.77;1.70;;;;;;;;;;5031833;28;20474;-75
2022/07/03 07:34:47;;;;;;;1.53;1.43;;;;;;;;;;5031370;28;20458;-74
2022/07/03 07:37:15;;;;;;;1.50;1.40;;;;;;;;;;5030956;28;20577;-75
2022/07/03 07:39:42;;;;;;;1.30;1.30;;;;;;;;;;5030406;28;20935;-75
2022/07/03 07:42:10;;;;;;;2.47;2.27;;;;;;;;;;5030093;28;20482;-74
2022/07/03 07:44:37;;;;;;;1.47;1.30;;;;;;;;;;5030277;28;20442;-74
2022/07/03 07:47:04;;;;;;;1.40;1.40;;;;;;;;;;5033121;28;20516;-75
2022/07/03 07:49:31;;;;;;;1.20;1.10;;;;;;;;;;5034329;28;20450;-74
2022/07/03 07:51:58;;;;;;;1.00;1.00;;;;;;;;;;5034510;28;20488;-75
2022/07/03 07:54:26;;;;;;;1.40;1.30;;;;;;;;;;5033960;28;20447;-74
2022/07/03 07:56:53;;;;;;;1.10;1.10;;;;;;;;;;5033848;28;20481;-75
2022/07/03 07:59:20;;;;;;;1.23;1.23;;;;;;;;;;5033992;28;20454;-75
2022/07/03 08:07:17;;;;;;;1.20;1.20;;;;;;;;;;5033942;28;20857;-75
2022/07/03 08:09:45;;;;;;;1.43;1.27;;;;;;;;;;5019557;28;20451;-75
2022/07/03 08:12:12;;;;;;;1.10;1.10;;;;;;;;;;5013704;28;20463;-75
2022/07/03 08:14:39;;;;;;;1.30;1.30;;;;;;;;;;5013815;28;20452;-75
2022/07/03 08:17:06;;;;;;;1.00;1.00;;;;;;;;;;5013743;28;20486;-75
2022/07/03 08:19:33;;;;;;;1.37;1.33;;;;;;;;;;5013953;28;20497;-75
2022/07/03 08:22:01;;;;;;;1.63;1.17;;;;;;;;;;5013452;28;20487;-75
2022/07/03 08:24:28;;;;;;;1.07;1.07;;;;;;;;;;5013567;28;20979;-75
2022/07/03 08:26:56;;;;;;;1.00;1.00;;;;;;;;;;5013721;28;20474;-75
2022/07/03 08:29:23;;;;;;;4.00;1.20;;;;;;;;;;5013889;28;20451;-75
2022/07/03 08:31:50;;;;;;;1.70;1.20;;;;;;;;;;5013057;28;21003;-74
2022/07/03 08:34:17;;;;;;;1.97;1.40;;;;;;;;;;5013505;28;20439;-75
2022/07/03 08:36:44;;;;;;;1.83;1.40;;;;;;;;;;5013694;28;21022;-76
2022/07/03 08:39:12;;;;;;;0.80;0.80;;;;;;;;;;5013457;28;20509;-75
2022/07/03 08:41:40;;;;;;;1.20;1.13;;;;;;;;;;5013378;28;20545;-75
2022/07/03 08:44:09;;;;;;;2.93;1.10;;;;;;;;;;5013379;28;20509;-76
2022/07/03 08:46:36;;;;;;;1.33;1.23;;;;;;;;;;5013287;28;20455;-75
2022/07/03 08:49:03;;;;;;;1.27;1.17;;;;;;;;;;5027611;28;20520;-75
2022/07/03 08:51:31;;;;;;;0.90;0.80;;;;;;;;;;5024713;28;20466;-75
2022/07/03 08:54:01;;;;;;;3.07;0.97;;;;;;;;;;5042982;28;20443;-75
2022/07/03 08:56:28;;;;;;;0.90;0.90;;;;;;;;;;5050544;28;20449;-75
2022/07/03 08:58:56;;;;;;;2.30;0.90;;;;;;;;;;5050317;28;20442;-75
2022/07/03 09:01:25;;;;;;;0.90;0.90;;;;;;;;;;5033479;28;20474;-75
2022/07/03 09:03:53;;;;;;;1.10;1.10;;;;;;;;;;5032806;28;20508;-75
2022/07/03 09:06:20;;;;;;;1.10;0.97;;;;;;;;;;5032764;28;20446;-74
2022/07/03 09:08:47;;;;;;;1.10;1.10;;;;;;;;;;5025986;28;20450;-75
2022/07/03 09:11:14;;;;;;;1.20;1.10;;;;;;;;;;5019853;28;20478;-75
2022/07/03 09:13:41;;;;;;;0.80;0.80;;;;;;;;;;5033766;28;20981;-75
2022/07/03 09:16:15;;;;;;;1.20;1.00;;;;;;;;;;5033877;28;20529;-75
2022/07/03 09:18:44;;;;;;;1.03;1.03;;;;;;;;;;5033460;28;20449;-75
2022/07/03 09:21:11;;;;;;;1.00;1.00;;;;;;;;;;5033487;28;20474;-75
2022/07/03 09:23:39;;;;;;;1.20;1.20;;;;;;;;;;5033045;28;20958;-76
2022/07/03 09:26:06;;;;;;;1.80;1.20;;;;;;;;;;5033663;28;20450;-76
2022/07/03 09:28:44;;;;;;;1.20;1.10;;;;;;;;;;5030277;28;20442;-76
2022/07/03 09:31:12;;;;;;;0.90;0.90;;;;;;;;;;5050132;28;20465;-75
2022/07/03 09:33:51;;;;;;;1.30;0.90;;;;;;;;;;5033632;28;20473;-75
2022/07/03 09:36:18;;;;;;;2.03;1.40;;;;;;;;;;5023340;28;20430;-75
2022/07/03 09:38:45;;;;;;;0.90;0.90;;;;;;;;;;5027497;28;20445;-76
2022/07/03 09:41:12;;;;;;;1.07;0.97;;;;;;;;;;5025873;28;20457;-76
2022/07/03 09:43:42;;;;;;;1.00;1.00;;;;;;;;;;5026118;28;20471;-75
2022/07/03 09:46:09;;;;;;;1.73;1.00;;;;;;;;;;5026173;28;20920;-75
2022/07/03 09:48:37;;;;;;;0.80;0.80;;;;;;;;;;5028458;28;20504;-76
2022/07/03 09:51:13;;;;;;;0.83;0.83;;;;;;;;;;5027136;28;20450;-76
2022/07/03 09:53:51;;;;;;;0.87;0.87;;;;;;;;;;5025944;28;20443;-75
2022/07/03 09:56:18;;;;;;;1.07;1.07;;;;;;;;;;5023088;28;20438;-75
2022/07/03 09:59:01;;;;;;;1.10;1.00;;;;;;;;;;5026715;28;20522;-75
2022/07/03 10:01:28;;;;;;;0.67;0.67;;;;;;;;;;5024085;28;20452;-76
2022/07/03 10:03:56;;;;;;;0.93;0.93;;;;;;;;;;5027099;28;20499;-76
2022/07/03 10:06:24;;;;;;;1.03;0.90;;;;;;;;;;5032694;28;20534;-75
2022/07/03 10:08:52;;;;;;;1.03;0.77;;;;;;;;;;5025498;28;20447;-76
2022/07/03 10:11:19;;;;;;;1.03;1.00;;;;;;;;;;5013164;28;21122;-75
2022/07/03 10:13:46;;;;;;;0.80;0.80;;;;;;;;;;5015300;28;20959;-77
2022/07/03 10:16:14;;;;;;;1.10;1.10;;;;;;;;;;5023500;28;20439;-77
2022/07/03 10:18:48;;;;;;;0.87;0.87;;;;;;;;;;5034247;28;20476;-76
2022/07/03 10:21:15;;;;;;;1.00;1.00;;;;;;;;;;5028682;28;20466;-76
2022/07/03 10:23:44;;;;;;;0.90;0.90;;;;;;;;;;5013136;28;20998;-75
2022/07/03 10:26:11;;;;;;;0.80;0.80;;;;;;;;;;5013207;28;20970;-76
2022/07/03 10:28:39;;;;;;;0.87;0.87;;;;;;;;;;5013327;28;20861;-76
2022/07/03 10:31:06;;;;;;;1.20;1.10;;;;;;;;;;5031742;28;20841;-75
2022/07/03 10:33:36;;;;;;;1.00;1.00;;;;;;;;;;5033824;28;20477;-75
2022/07/03 10:36:04;;;;;;;1.50;1.13;;;;;;;;;;5023549;28;20439;-76
2022/07/03 10:38:37;;;;;;;0.90;0.90;;;;;;;;;;5035845;28;20500;-76
2022/07/03 10:46:37;;;;;;;0.93;0.93;;;;;;;;;;5033389;28;20553;-76
2022/07/03 10:49:06;;;;;;;1.17;1.00;;;;;;;;;;5034244;28;20453;-75
2022/07/03 10:51:52;;;;;;;1.23;0.90;;;;;;;;;;5033715;28;20561;-76
2022/07/03 10:54:19;;;;;;;1.30;1.07;;;;;;;;;;5029302;28;20450;-75
2022/07/03 10:57:05;;;;;;;3.40;1.00;;;;;;;;;;5032156;28;20442;-77
2022/07/03 10:59:51;;;;;;;0.87;0.87;;;;;;;;;;5032583;28;20450;-76
2022/07/03 11:02:23;;;;;;;1.17;1.03;;;;;;;;;;5012223;28;21015;-75
2022/07/03 11:05:08;;;;;;;0.73;0.73;;;;;;;;;;5011733;28;20481;-75
2022/07/03 11:07:36;;;;;;;1.70;1.10;;;;;;;;;;5023596;28;20449;-76
2022/07/03 11:10:22;;;;;;;0.90;0.90;;;;;;;;;;5028909;28;20434;-77
2022/07/03 11:12:55;;;;;;;0.70;0.70;;;;;;;;;;5038247;28;21020;-75
2022/07/03 11:15:26;;;;;;;1.50;0.97;;;;;;;;;;5037143;28;20517;-76
2022/07/03 11:21:12;;;;;;;1.50;0.90;;;;;;;;;;5100083;28;20564;-77
2022/07/03 11:23:42;;;;;;;2.10;1.10;;;;;;;;;;5068050;28;20490;-77
2022/07/03 11:26:22;;;;;;;1.00;1.00;;;;;;;;;;5068859;28;20831;-76
2022/07/03 11:28:49;;;;;;;0.93;0.93;;;;;;;;;;5068935;28;20436;-75
2022/07/03 11:31:21;;;;;;;0.80;0.80;;;;;;;;;;5068788;28;20468;-75
2022/07/03 11:33:49;;;;;;;1.23;0.83;;;;;;;;;;5068394;28;20436;-75
2022/07/03 11:36:28;;;;;;;0.90;0.90;;;;;;;;;;5068602;28;20436;-76
2022/07/03 11:39:09;;;;;;;0.90;0.80;;;;;;;;;;5068677;28;20999;-77
2022/07/03 11:41:44;;;;;;;0.87;0.87;;;;;;;;;;5073336;28;20494;-75
2022/07/03 11:44:11;;;;;;;1.00;1.00;;;;;;;;;;5091098;28;20472;-77
2022/07/03 11:46:39;;;;;;;1.57;0.83;;;;;;;;;;5091852;28;20490;-76
2022/07/03 11:49:06;;;;;;;1.33;1.00;;;;;;;;;;5088864;28;20436;-76
2022/07/03 11:51:35;;;;;;;1.10;1.10;;;;;;;;;;5089381;28;20534;-75
2022/07/03 11:54:03;;;;;;;1.80;1.00;;;;;;;;;;5088351;28;20447;-75
2022/07/03 11:56:30;;;;;;;0.73;0.73;;;;;;;;;;5088407;28;20440;-74
2022/07/03 11:58:58;;;;;;;1.20;1.10;;;;;;;;;;5088130;28;20472;-75
2022/07/03 12:01:30;;;;;;;0.90;0.90;;;;;;;;;;5088311;28;20517;-76
2022/07/03 12:04:04;;;;;;;1.10;1.00;;;;;;;;;;5088267;28;20443;-76
2022/07/03 12:06:36;;;;;;;1.20;1.10;;;;;;;;;;5088805;28;20447;-77
2022/07/03 12:09:03;;;;;;;0.70;0.70;;;;;;;;;;5079495;28;20833;-75
2022/07/03 12:11:30;;;;;;;1.40;0.80;;;;;;;;;;5068130;28;20516;-75
2022/07/03 12:13:57;;;;;;;2.60;1.23;;;;;;;;;;5067865;28;20944;-73
2022/07/03 12:16:32;;;;;;;0.80;0.80;;;;;;;;;;5068063;28;20491;-75
2022/07/03 12:19:04;;;;;;;1.10;1.00;;;;;;;;;;5067784;28;20479;-75
2022/07/03 12:21:37;;;;;;;1.17;0.97;;;;;;;;;;5066011;28;20711;-76
2022/07/03 12:24:10;;;;;;;1.10;1.00;;;;;;;;;;5067334;28;20527;-76
2022/07/03 12:26:37;;;;;;;1.20;1.20;;;;;;;;;;5067620;28;20998;-75
2022/07/03 12:29:05;;;;;;;0.80;0.80;;;;;;;;;;5067602;28;20437;-75
2022/07/03 12:31:32;;;;;;;1.20;1.10;;;;;;;;;;5057434;28;21006;-74
2022/07/03 12:34:00;;;;;;;1.00;0.83;;;;;;;;;;5053963;28;20453;-75
2022/07/03 12:36:27;;;;;;;1.00;1.00;;;;;;;;;;5053932;28;20446;-75
2022/07/03 12:38:54;;;;;;;1.10;1.10;;;;;;;;;;5054304;28;20532;-75
2022/07/03 12:41:23;;;;;;;1.93;0.90;;;;;;;;;;5053999;28;20454;-76
2022/07/03 12:43:51;;;;;;;1.10;1.00;;;;;;;;;;5053475;28;20449;-75
2022/07/03 12:46:22;;;;;;;1.00;1.00;;;;;;;;;;5054037;28;20503;-77
2022/07/03 12:48:50;;;;;;;0.87;0.87;;;;;;;;;;5053755;28;20433;-75
2022/07/03 12:51:17;;;;;;;1.10;1.00;;;;;;;;;;5053558;28;20844;-76
2022/07/03 12:53:44;;;;;;;3.03;1.03;;;;;;;;;;5054021;28;20441;-75
2022/07/03 12:56:12;;;;;;;1.10;1.10;;;;;;;;;;5054136;28;20499;-75
2022/07/03 13:01:26;;;;;;;1.20;1.10;;;;;;;;;;5053807;28;20456;-76
2022/07/03 13:03:54;;;;;;;0.93;0.93;;;;;;;;;;5053282;28;20441;-75
2022/07/03 13:06:22;;;;;;;0.90;0.90;;;;;;;;;;5054231;28;20461;-76
2022/07/03 13:08:54;;;;;;;3.53;1.10;;;;;;;;;;5053624;28;20453;-75
2022/07/03 13:11:28;;;;;;;1.37;1.10;;;;;;;;;;5053881;28;20556;-75
2022/07/03 13:14:02;;;;;;;1.80;1.30;;;;;;;;;;5054102;28;20506;-75
2022/07/03 13:16:29;;;;;;;0.97;0.97;;;;;;;;;;5057644;28;20495;-76
2022/07/03 13:18:59;;;;;;;1.60;1.50;;;;;;;;;;5057198;28;20468;-75
2022/07/03 13:21:26;;;;;;;1.20;0.93;;;;;;;;;;5057479;28;20469;-75
2022/07/03 13:23:53;;;;;;;1.00;1.00;;;;;;;;;;5056529;28;20507;-75
2022/07/03 13:26:20;;;;;;;1.00;1.00;;;;;;;;;;5056822;28;20641;-75
2022/07/03 13:28:47;;;;;;;1.10;1.10;;;;;;;;;;5053681;28;20449;-75
2022/07/03 13:31:16;;;;;;;1.53;1.07;;;;;;;;;;5053588;28;20484;-75
2022/07/03 13:33:43;;;;;;;1.10;1.10;;;;;;;;;;5052695;28;20495;-75
2022/07/03 13:36:10;;;;;;;0.90;0.90;;;;;;;;;;5052851;28;20449;-74
2022/07/03 13:38:37;;;;;;;0.87;0.87;;;;;;;;;;5052742;28;20494;-75
2022/07/03 13:41:04;;;;;;;1.67;1.10;;;;;;;;;;5052607;28;20485;-75
2022/07/03 13:43:31;;;;;;;3.43;1.37;;;;;;;;;;5051513;28;20499;-75
2022/07/03 13:45:58;;;;;;;6.50;1.30;;;;;;;;;;5052946;28;20583;-75
2022/07/03 13:48:26;;;;;;;1.80;0.93;;;;;;;;;;5053167;28;20456;-76
2022/07/03 13:50:53;;;;;;;1.27;1.20;;;;;;;;;;5052616;28;20437;-75
2022/07/03 13:53:20;;;;;;;2.40;1.73;;;;;;;;;;5052396;28;20499;-76
2022/07/03 13:55:47;;;;;;;1.13;1.10;;;;;;;;;;5052381;28;20495;-75
2022/07/03 13:58:14;;;;;;;7.00;1.70;;;;;;;;;;5052706;28;20861;-75
2022/07/03 14:00:41;;;;;;;1.60;1.20;;;;;;;;;;5052673;28;20794;-75
2022/07/03 14:03:08;;;;;;;1.77;1.67;;;;;;;;;;5052071;28;20523;-75
2022/07/03 14:05:37;;;;;;;1.33;1.23;;;;;;;;;;5052650;28;20507;-75
2022/07/03 14:08:04;;;;;;;1.10;1.00;;;;;;;;;;5052172;28;20449;-75
2022/07/03 14:10:31;;;;;;;1.20;1.10;;;;;;;;;;5051954;28;20449;-75
2022/07/03 14:12:58;;;;;;;1.00;1.00;;;;;;;;;;5052174;28;20771;-75
2022/07/03 14:15:25;;;;;;;1.73;0.90;;;;;;;;;;5052127;28;20929;-76
2022/07/03 14:17:52;;;;;;;1.10;1.10;;;;;;;;;;5052526;28;20504;-75
2022/07/03 14:20:19;;;;;;;1.37;1.27;;;;;;;;;;5053542;28;20904;-75
2022/07/03 14:22:47;;;;;;;2.73;1.30;;;;;;;;;;5053120;28;20469;-74
2022/07/03 14:25:14;;;;;;;3.10;1.07;;;;;;;;;;5052988;28;20446;-76
2022/07/03 14:33:10;;;;;;;2.53;1.30;;;;;;;;;;5051933;28;20425;-76
2022/07/03 14:35:37;;;;;;;1.20;1.10;;;;;;;;;;5052662;28;20505;-75
2022/07/03 14:38:06;;;;;;;1.23;1.20;;;;;;;;;;5052562;28;20495;-75
2022/07/03 14:40:33;;;;;;;1.77;1.07;;;;;;;;;;5052166;28;20501;-75
2022/07/03 14:43:00;;;;;;;1.30;1.17;;;;;;;;;;5051936;28;20464;-75
2022/07/03 14:45:27;;;;;;;1.60;1.50;;;;;;;;;;5059146;28;20875;-75
2022/07/03 14:47:54;;;;;;;1.13;1.10;;;;;;;;;;5063788;28;20438;-75
2022/07/03 14:50:21;;;;;;;1.10;1.10;;;;;;;;;;5054276;28;21123;-74
2022/07/03 14:52:48;;;;;;;0.90;0.90;;;;;;;;;;5051494;28;20465;-75
2022/07/03 14:55:17;;;;;;;1.20;1.20;;;;;;;;;;5052777;28;20446;-74
2022/07/03 14:57:51;;;;;;;1.60;1.10;;;;;;;;;;5051393;28;20476;-76
2022/07/03 15:00:20;;;;;;;1.37;1.27;;;;;;;;;;5051234;28;20523;-76
2022/07/03 15:02:49;;;;;;;1.23;1.13;;;;;;;;;;5051587;28;20472;-75
2022/07/03 15:05:17;;;;;;;1.40;1.30;;;;;;;;;;5051850;28;20449;-75
2022/07/03 15:07:45;;;;;;;1.37;1.23;;;;;;;;;;5051627;28;20442;-75
2022/07/03 15:10:15;;;;;;;6.77;1.27;;;;;;;;;;5051249;28;20509;-75
2022/07/03 15:12:45;;;;;;;1.43;1.30;;;;;;;;;;5051308;28;20472;-75
2022/07/03 15:15:12;;;;;;;1.10;1.00;;;;;;;;;;5051196;28;20453;-76
2022/07/03 15:17:39;;;;;;;1.50;1.40;;;;;;;;;;5051491;28;20457;-75